Time;durP1;ratioP1;P1;durP2;ratioP2;P2;SDS_P1;SDS_P2;PMS_P1;PMS_P2;Temp;Humidity;BMP_temperature;BMP_pressure;BME280_temperature;BME280_humidity;BME280_pressure;Samples;Min_cycle;Max_cycle;Signal;HPM_P1;HPM_P2
2021/01/23 00:00:13;;;;;;;144.77;33.60;;;;;;;;;;5032281;28;20515;-69
2021/01/23 00:02:38;;;;;;;273.83;40.25;;;;;;;;;;5032079;28;20056;-70
2021/01/23 00:05:03;;;;;;;270.50;40.22;;;;;;;;;;5032257;28;20083;-70
2021/01/23 00:07:29;;;;;;;267.90;43.67;;;;;;;;;;5032149;28;20080;-70
2021/01/23 00:09:54;;;;;;;319.85;40.25;;;;;;;;;;5031699;28;21073;-70
2021/01/23 00:12:19;;;;;;;140.57;32.38;;;;;;;;;;5032026;28;20089;-70
2021/01/23 00:14:45;;;;;;;83.18;22.75;;;;;;;;;;5032371;28;20052;-69
2021/01/23 00:17:10;;;;;;;83.07;23.10;;;;;;;;;;5032019;28;20030;-70
2021/01/23 00:19:35;;;;;;;93.63;21.13;;;;;;;;;;5032152;28;20018;-70
2021/01/23 00:22:00;;;;;;;51.58;15.95;;;;;;;;;;5035182;28;20033;-69
2021/01/23 00:24:26;;;;;;;66.95;19.58;;;;;;;;;;5035637;28;20033;-69
2021/01/23 00:26:51;;;;;;;55.08;17.65;;;;;;;;;;5035524;28;20527;-70
2021/01/23 00:29:17;;;;;;;58.22;19.92;;;;;;;;;;5035512;28;20494;-69
2021/01/23 00:31:42;;;;;;;66.18;22.40;;;;;;;;;;5035463;28;20497;-70
2021/01/23 00:34:08;;;;;;;100.05;32.97;;;;;;;;;;5034923;28;20053;-69
2021/01/23 00:36:33;;;;;;;198.25;53.15;;;;;;;;;;5035487;28;20033;-69
2021/01/23 00:38:59;;;;;;;287.95;66.63;;;;;;;;;;5034913;28;20489;-69
2021/01/23 00:41:26;;;;;;;278.05;59.20;;;;;;;;;;5035412;28;20020;-69
2021/01/23 00:43:51;;;;;;;355.98;56.08;;;;;;;;;;5035123;28;20068;-70
2021/01/23 00:46:17;;;;;;;257.92;53.95;;;;;;;;;;5034888;28;20053;-69
2021/01/23 00:48:42;;;;;;;266.13;61.25;;;;;;;;;;5035114;28;20016;-70
2021/01/23 00:51:07;;;;;;;311.55;56.95;;;;;;;;;;5035055;28;20427;-69
2021/01/23 00:53:33;;;;;;;446.08;77.35;;;;;;;;;;5034817;28;20040;-69
2021/01/23 00:55:58;;;;;;;315.80;51.85;;;;;;;;;;5035061;28;20014;-69
2021/01/23 00:58:23;;;;;;;384.20;60.85;;;;;;;;;;5035197;28;20409;-69
2021/01/23 01:00:48;;;;;;;378.30;47.08;;;;;;;;;;5034928;28;20580;-70
2021/01/23 01:03:14;;;;;;;246.20;42.00;;;;;;;;;;5034802;28;20024;-70
2021/01/23 01:05:39;;;;;;;174.88;36.60;;;;;;;;;;5034896;28;20471;-70
2021/01/23 01:08:04;;;;;;;234.88;36.20;;;;;;;;;;5034679;28;20025;-69
2021/01/23 01:10:30;;;;;;;146.38;34.30;;;;;;;;;;5034471;28;20138;-69
2021/01/23 01:12:56;;;;;;;116.75;32.97;;;;;;;;;;5034544;28;20050;-69
2021/01/23 01:15:21;;;;;;;91.40;31.45;;;;;;;;;;5034701;28;20025;-70
2021/01/23 01:17:46;;;;;;;142.23;37.42;;;;;;;;;;5034453;28;20480;-70
2021/01/23 01:20:12;;;;;;;235.05;40.80;;;;;;;;;;5034618;28;20112;-70
2021/01/23 01:22:37;;;;;;;231.35;38.67;;;;;;;;;;5034375;28;20030;-69
2021/01/23 01:25:03;;;;;;;160.30;39.40;;;;;;;;;;5034546;28;20450;-70
2021/01/23 01:27:28;;;;;;;127.72;34.92;;;;;;;;;;5034326;28;20074;-69
2021/01/23 01:29:54;;;;;;;144.65;38.67;;;;;;;;;;5034404;28;20033;-69
2021/01/23 01:32:19;;;;;;;196.65;53.55;;;;;;;;;;5034128;28;20116;-70
2021/01/23 01:34:44;;;;;;;153.80;49.10;;;;;;;;;;5034300;28;20470;-70
2021/01/23 01:37:10;;;;;;;132.98;42.58;;;;;;;;;;5033890;28;20057;-69
2021/01/23 01:39:35;;;;;;;118.18;34.55;;;;;;;;;;5033856;28;20021;-70
2021/01/23 01:42:01;;;;;;;151.77;34.65;;;;;;;;;;5034221;28;20049;-70
2021/01/23 01:44:26;;;;;;;134.13;39.47;;;;;;;;;;5033371;28;20382;-71
2021/01/23 01:46:52;;;;;;;160.10;46.72;;;;;;;;;;5034088;28;20108;-71
2021/01/23 01:49:18;;;;;;;105.65;37.33;;;;;;;;;;5033961;28;20033;-70
2021/01/23 01:51:44;;;;;;;72.68;28.58;;;;;;;;;;5034019;28;20057;-71
2021/01/23 01:54:09;;;;;;;69.70;25.90;;;;;;;;;;5033891;28;20014;-70
2021/01/23 01:56:34;;;;;;;79.07;26.08;;;;;;;;;;5033922;28;20373;-68
2021/01/23 01:59:00;;;;;;;61.67;24.38;;;;;;;;;;5033415;28;20036;-69
2021/01/23 02:01:25;;;;;;;55.67;24.20;;;;;;;;;;5033652;28;20029;-68
2021/01/23 02:04:00;;;;;;;63.65;28.63;;;;;;;;;;5033202;28;20441;-68
2021/01/23 02:06:34;;;;;;;60.00;26.20;;;;;;;;;;5033796;28;20033;-68
2021/01/23 02:09:18;;;;;;;71.00;27.30;;;;;;;;;;5033298;28;20390;-69
2021/01/23 02:11:55;;;;;;;58.55;26.17;;;;;;;;;;5033626;28;20069;-69
2021/01/23 02:14:29;;;;;;;57.38;23.00;;;;;;;;;;5033240;28;20481;-69
2021/01/23 02:16:55;;;;;;;58.47;21.55;;;;;;;;;;5033467;28;20034;-69
2021/01/23 02:19:36;;;;;;;69.70;28.58;;;;;;;;;;5033194;28;20484;-68
2021/01/23 02:22:07;;;;;;;67.25;30.02;;;;;;;;;;5033457;28;20026;-69
2021/01/23 02:24:32;;;;;;;72.47;29.73;;;;;;;;;;5033014;28;20501;-69
2021/01/23 02:26:57;;;;;;;46.08;21.13;;;;;;;;;;5033308;28;20051;-69
2021/01/23 02:29:41;;;;;;;52.05;20.67;;;;;;;;;;5033290;28;20064;-69
2021/01/23 02:32:08;;;;;;;46.30;18.83;;;;;;;;;;5031870;28;20512;-69
2021/01/23 02:34:33;;;;;;;51.38;22.40;;;;;;;;;;5026017;28;20097;-69
2021/01/23 02:37:00;;;;;;;44.25;21.25;;;;;;;;;;5032027;28;20050;-69
2021/01/23 02:39:26;;;;;;;46.03;17.83;;;;;;;;;;5032504;28;20047;-69
2021/01/23 02:41:52;;;;;;;39.33;17.33;;;;;;;;;;5032982;28;20034;-69
2021/01/23 02:44:18;;;;;;;39.38;15.40;;;;;;;;;;5032314;28;20504;-69
2021/01/23 02:46:44;;;;;;;39.33;15.45;;;;;;;;;;5033073;28;20017;-69
2021/01/23 02:49:09;;;;;;;45.13;19.17;;;;;;;;;;5032685;28;20462;-69
2021/01/23 02:51:53;;;;;;;40.53;16.98;;;;;;;;;;5032856;28;20045;-70
2021/01/23 02:54:34;;;;;;;52.88;19.95;;;;;;;;;;5032782;28;20662;-69
2021/01/23 02:57:01;;;;;;;60.50;25.05;;;;;;;;;;5032628;28;20557;-69
2021/01/23 02:59:26;;;;;;;64.43;26.52;;;;;;;;;;5032612;28;20083;-69
2021/01/23 03:01:52;;;;;;;63.03;25.85;;;;;;;;;;5032703;28;20033;-69
2021/01/23 03:04:21;;;;;;;77.18;31.05;;;;;;;;;;5032648;28;20462;-69
2021/01/23 03:06:47;;;;;;;62.03;28.83;;;;;;;;;;5032821;28;20095;-69
2021/01/23 03:09:19;;;;;;;74.22;26.60;;;;;;;;;;5032690;28;20474;-70
2021/01/23 03:11:44;;;;;;;43.80;16.58;;;;;;;;;;5032265;28;20057;-68
2021/01/23 03:14:10;;;;;;;42.20;17.80;;;;;;;;;;5032364;28;20359;-69
2021/01/23 03:16:35;;;;;;;32.53;12.40;;;;;;;;;;5032623;28;20033;-69
2021/01/23 03:19:01;;;;;;;35.78;11.73;;;;;;;;;;5032612;28;20096;-70
2021/01/23 03:21:26;;;;;;;52.05;22.35;;;;;;;;;;5032580;28;20025;-69
2021/01/23 03:23:51;;;;;;;57.38;24.30;;;;;;;;;;5032496;28;20048;-69
2021/01/23 03:26:17;;;;;;;58.40;27.13;;;;;;;;;;5032313;28;20022;-69
2021/01/23 03:28:42;;;;;;;70.72;27.70;;;;;;;;;;5032214;28;20033;-69
2021/01/23 03:31:07;;;;;;;75.88;31.63;;;;;;;;;;5032461;28;20129;-70
2021/01/23 03:33:32;;;;;;;81.07;33.65;;;;;;;;;;5032490;28;20028;-69
2021/01/23 03:35:57;;;;;;;88.82;34.58;;;;;;;;;;5032575;28;20108;-70
2021/01/23 03:38:23;;;;;;;72.00;29.25;;;;;;;;;;5032386;28;20092;-69
2021/01/23 03:40:48;;;;;;;89.60;37.83;;;;;;;;;;5032376;28;20048;-69
2021/01/23 03:43:13;;;;;;;85.82;35.75;;;;;;;;;;5032639;28;20486;-70
2021/01/23 03:45:39;;;;;;;83.65;36.28;;;;;;;;;;5032479;28;20032;-69
2021/01/23 03:48:04;;;;;;;86.05;32.95;;;;;;;;;;5032263;28;20112;-69
2021/01/23 03:50:29;;;;;;;66.38;26.35;;;;;;;;;;5032315;28;20034;-70
2021/01/23 03:52:55;;;;;;;59.58;23.63;;;;;;;;;;5032218;28;20029;-69
2021/01/23 03:55:20;;;;;;;39.17;14.40;;;;;;;;;;5032854;28;20018;-69
2021/01/23 03:57:45;;;;;;;24.00;10.63;;;;;;;;;;5035988;28;20068;-69
2021/01/23 04:00:11;;;;;;;32.67;12.40;;;;;;;;;;5035892;28;20033;-69
2021/01/23 04:02:36;;;;;;;22.08;8.98;;;;;;;;;;5036015;28;20025;-69
2021/01/23 04:05:02;;;;;;;20.80;9.13;;;;;;;;;;5035968;28;20113;-69
2021/01/23 04:07:27;;;;;;;25.05;10.15;;;;;;;;;;5035980;28;20069;-69
2021/01/23 04:09:52;;;;;;;19.60;7.90;;;;;;;;;;5035569;28;20009;-69
2021/01/23 04:12:18;;;;;;;44.17;17.77;;;;;;;;;;5035807;28;20124;-71
2021/01/23 04:14:43;;;;;;;47.90;17.38;;;;;;;;;;5035847;28;20447;-71
2021/01/23 04:17:08;;;;;;;26.35;10.38;;;;;;;;;;5035766;28;20025;-71
2021/01/23 04:19:33;;;;;;;21.38;8.05;;;;;;;;;;5035683;28;20034;-71
2021/01/23 04:21:59;;;;;;;16.80;6.78;;;;;;;;;;5035677;28;20039;-68
2021/01/23 04:24:24;;;;;;;20.05;6.47;;;;;;;;;;5035337;28;20067;-68
2021/01/23 04:26:49;;;;;;;26.13;6.43;;;;;;;;;;5035614;28;20100;-69
2021/01/23 04:29:15;;;;;;;16.77;6.18;;;;;;;;;;5035534;28;20053;-68
2021/01/23 04:31:40;;;;;;;20.92;6.72;;;;;;;;;;5035484;28;20734;-69
2021/01/23 04:34:05;;;;;;;20.08;5.80;;;;;;;;;;5035305;28;20034;-69
2021/01/23 04:36:31;;;;;;;18.60;5.95;;;;;;;;;;5035458;28;20037;-69
2021/01/23 04:38:56;;;;;;;16.83;6.03;;;;;;;;;;5035329;28;20698;-69
2021/01/23 04:41:22;;;;;;;17.00;5.93;;;;;;;;;;5035193;28;20104;-69
2021/01/23 04:43:48;;;;;;;19.13;5.55;;;;;;;;;;5035120;28;20030;-69
2021/01/23 04:46:13;;;;;;;17.98;5.43;;;;;;;;;;5035352;28;20013;-71
2021/01/23 04:48:38;;;;;;;16.35;5.72;;;;;;;;;;5035085;28;20029;-71
2021/01/23 04:51:04;;;;;;;14.75;5.50;;;;;;;;;;5035157;28;20549;-71
2021/01/23 04:53:30;;;;;;;14.90;5.22;;;;;;;;;;5035104;28;20044;-71
2021/01/23 04:55:55;;;;;;;21.77;5.47;;;;;;;;;;5035094;28;20041;-71
2021/01/23 04:58:20;;;;;;;15.85;5.10;;;;;;;;;;5034905;28;20108;-68
2021/01/23 05:00:46;;;;;;;16.95;5.88;;;;;;;;;;5035079;28;20020;-68
2021/01/23 05:03:11;;;;;;;18.23;5.70;;;;;;;;;;5034750;28;20095;-68
2021/01/23 05:05:37;;;;;;;13.85;5.78;;;;;;;;;;5034818;28;20033;-68
2021/01/23 05:08:10;;;;;;;32.78;13.75;;;;;;;;;;5034120;28;20024;-68
2021/01/23 05:10:35;;;;;;;29.67;11.07;;;;;;;;;;5034736;28;20066;-68
2021/01/23 05:13:01;;;;;;;22.30;10.52;;;;;;;;;;5034943;28;20107;-68
2021/01/23 05:15:30;;;;;;;26.15;9.45;;;;;;;;;;5034733;28;20116;-68
2021/01/23 05:17:59;;;;;;;23.88;8.68;;;;;;;;;;5034613;28;20034;-68
2021/01/23 05:20:28;;;;;;;15.85;7.28;;;;;;;;;;5034681;28;20389;-68
2021/01/23 05:22:53;;;;;;;16.98;4.95;;;;;;;;;;5034558;28;20018;-68
2021/01/23 05:25:18;;;;;;;12.65;4.88;;;;;;;;;;5034580;28;20124;-69
2021/01/23 05:27:45;;;;;;;19.92;5.00;;;;;;;;;;5034478;28;20460;-68
2021/01/23 05:30:10;;;;;;;13.02;5.15;;;;;;;;;;5034383;28;20025;-68
2021/01/23 05:32:35;;;;;;;9.95;4.43;;;;;;;;;;5034362;28;20482;-68
2021/01/23 05:35:11;;;;;;;19.67;5.05;;;;;;;;;;5034230;28;20123;-68
2021/01/23 05:37:37;;;;;;;;;;;;;;;;;;5030321;28;20026;-70
2021/01/23 05:40:03;;;;;;;16.88;4.85;;;;;;;;;;5033329;28;19913;-71
2021/01/23 05:42:28;;;;;;;13.23;4.43;;;;;;;;;;5034140;28;20113;-71
2021/01/23 05:45:06;;;;;;;14.55;4.25;;;;;;;;;;5033999;28;20231;-71
2021/01/23 05:47:32;;;;;;;10.57;4.25;;;;;;;;;;5034170;28;20026;-71
2021/01/23 05:49:57;;;;;;;11.30;4.05;;;;;;;;;;5033959;28;20040;-68
2021/01/23 05:52:22;;;;;;;10.60;4.40;;;;;;;;;;5033914;28;20474;-68
2021/01/23 05:54:48;;;;;;;12.35;4.28;;;;;;;;;;5034023;28;20068;-68
2021/01/23 05:57:14;;;;;;;14.50;4.95;;;;;;;;;;5034039;28;20033;-68
2021/01/23 05:59:40;;;;;;;11.73;5.10;;;;;;;;;;5033716;28;20021;-68
2021/01/23 06:02:05;;;;;;;16.35;4.68;;;;;;;;;;5032658;28;20022;-68
2021/01/23 06:04:31;;;;;;;12.10;4.25;;;;;;;;;;5033704;28;20045;-68
2021/01/23 06:06:56;;;;;;;12.85;3.88;;;;;;;;;;5033751;28;20020;-68
2021/01/23 06:09:38;;;;;;;9.43;3.78;;;;;;;;;;5033753;28;20449;-69
2021/01/23 06:12:04;;;;;;;9.77;3.97;;;;;;;;;;5033638;28;20037;-68
2021/01/23 06:14:39;;;;;;;10.02;4.30;;;;;;;;;;5033538;28;20068;-68
2021/01/23 06:17:04;;;;;;;12.68;3.67;;;;;;;;;;5033299;28;20517;-68
2021/01/23 06:19:29;;;;;;;10.18;3.40;;;;;;;;;;5032738;28;20021;-68
2021/01/23 06:21:55;;;;;;;13.20;3.97;;;;;;;;;;5033468;28;20536;-68
2021/01/23 06:24:32;;;;;;;16.15;4.38;;;;;;;;;;5033192;28;20111;-69
2021/01/23 06:26:58;;;;;;;15.05;3.85;;;;;;;;;;5033369;28;20146;-68
2021/01/23 06:29:33;;;;;;;15.60;3.72;;;;;;;;;;5033649;28;20073;-68
2021/01/23 06:32:28;;;;;;;7.38;3.05;;;;;;;;;;5033315;28;20065;-68
2021/01/23 06:34:57;;;;;;;15.00;3.72;;;;;;;;;;5027977;28;20111;-69
2021/01/23 06:37:25;;;;;;;17.45;3.97;;;;;;;;;;5033353;28;20024;-68
2021/01/23 06:40:11;;;;;;;25.90;4.75;;;;;;;;;;5032980;28;20033;-68
2021/01/23 06:42:36;;;;;;;6.60;2.97;;;;;;;;;;5013191;28;20125;-68
2021/01/23 06:45:15;;;;;;;12.93;3.25;;;;;;;;;;5013318;28;20118;-68
2021/01/23 06:47:44;;;;;;;13.82;3.65;;;;;;;;;;5013038;28;20467;-68
2021/01/23 06:50:10;;;;;;;8.88;3.67;;;;;;;;;;5013087;28;20088;-68
2021/01/23 06:52:45;;;;;;;18.52;4.45;;;;;;;;;;5013233;28;20037;-68
2021/01/23 06:55:11;;;;;;;12.25;3.35;;;;;;;;;;5013140;28;20029;-68
2021/01/23 06:57:42;;;;;;;10.85;3.45;;;;;;;;;;5012973;28;20446;-68
2021/01/23 07:00:08;;;;;;;12.50;3.50;;;;;;;;;;5013248;28;20026;-68
2021/01/23 07:02:33;;;;;;;9.87;3.47;;;;;;;;;;5013208;28;20025;-69
2021/01/23 07:04:59;;;;;;;15.07;3.90;;;;;;;;;;5012678;28;20034;-68
2021/01/23 07:07:24;;;;;;;15.20;3.83;;;;;;;;;;5012860;28;20021;-69
2021/01/23 07:09:53;;;;;;;10.93;3.90;;;;;;;;;;5012603;28;20025;-68
2021/01/23 07:12:36;;;;;;;14.63;4.18;;;;;;;;;;5013092;28;20041;-68
2021/01/23 07:15:03;;;;;;;11.73;3.58;;;;;;;;;;5012663;28;20502;-69
2021/01/23 07:17:28;;;;;;;7.75;2.83;;;;;;;;;;5012686;28;20038;-69
2021/01/23 07:19:54;;;;;;;19.40;3.33;;;;;;;;;;5012865;28;20076;-68
2021/01/23 07:22:20;;;;;;;10.30;3.10;;;;;;;;;;5013024;28;20467;-69
2021/01/23 07:24:45;;;;;;;8.77;3.03;;;;;;;;;;5012723;28;20109;-68
2021/01/23 07:27:10;;;;;;;11.52;3.65;;;;;;;;;;5012910;28;20014;-68
2021/01/23 07:29:35;;;;;;;11.35;3.45;;;;;;;;;;5014029;28;20179;-69
2021/01/23 07:32:01;;;;;;;9.82;3.00;;;;;;;;;;5016792;28;20056;-68
2021/01/23 07:34:26;;;;;;;7.32;3.33;;;;;;;;;;5034684;28;20018;-69
2021/01/23 07:36:51;;;;;;;12.00;3.17;;;;;;;;;;5036571;28;20034;-68
2021/01/23 07:39:18;;;;;;;17.55;4.57;;;;;;;;;;5036434;28;20432;-69
2021/01/23 07:41:48;;;;;;;8.65;3.88;;;;;;;;;;5036486;28;20021;-68
2021/01/23 07:44:13;;;;;;;11.23;3.55;;;;;;;;;;5036312;28;20116;-69
2021/01/23 07:46:39;;;;;;;16.50;3.08;;;;;;;;;;5036267;28;20116;-68
2021/01/23 07:49:06;;;;;;;10.25;3.80;;;;;;;;;;5036267;28;20021;-69
2021/01/23 07:51:32;;;;;;;15.27;3.90;;;;;;;;;;5036260;28;20041;-69
2021/01/23 07:54:10;;;;;;;11.68;5.53;;;;;;;;;;5036103;28;20040;-69
2021/01/23 07:56:36;;;;;;;16.45;4.80;;;;;;;;;;5036366;28;20025;-68
2021/01/23 07:59:02;;;;;;;13.07;3.45;;;;;;;;;;5035846;28;20063;-68
2021/01/23 08:01:27;;;;;;;12.88;3.17;;;;;;;;;;5036303;28;20374;-68
2021/01/23 08:03:53;;;;;;;10.57;3.47;;;;;;;;;;5036172;28;20037;-69
2021/01/23 08:06:19;;;;;;;9.75;4.32;;;;;;;;;;5035900;28;20038;-68
2021/01/23 08:08:45;;;;;;;15.05;4.55;;;;;;;;;;5035750;28;20053;-68
2021/01/23 08:11:30;;;;;;;11.82;3.65;;;;;;;;;;5035499;28;20580;-68
2021/01/23 08:14:05;;;;;;;14.10;4.32;;;;;;;;;;5035228;28;20041;-68
2021/01/23 08:16:30;;;;;;;11.20;3.67;;;;;;;;;;5035920;28;20072;-69
2021/01/23 08:19:06;;;;;;;20.30;4.43;;;;;;;;;;5035296;28;20291;-68
2021/01/23 08:21:31;;;;;;;14.57;4.18;;;;;;;;;;5035880;28;20364;-68
2021/01/23 08:23:56;;;;;;;12.60;4.13;;;;;;;;;;5035552;28;20083;-68
2021/01/23 08:26:35;;;;;;;12.68;4.00;;;;;;;;;;5035734;28;20475;-69
2021/01/23 08:29:01;;;;;;;10.95;3.80;;;;;;;;;;5035471;28;20034;-68
2021/01/23 08:31:26;;;;;;;14.15;3.90;;;;;;;;;;5035472;28;20505;-70
2021/01/23 08:33:54;;;;;;;11.27;3.53;;;;;;;;;;5035177;28;20462;-71
2021/01/23 08:36:19;;;;;;;17.40;4.13;;;;;;;;;;5035602;28;20026;-71
2021/01/23 08:38:45;;;;;;;15.20;3.88;;;;;;;;;;5035279;28;20082;-71
2021/01/23 08:41:10;;;;;;;9.38;3.67;;;;;;;;;;5034569;28;20045;-71
2021/01/23 08:43:36;;;;;;;10.20;4.13;;;;;;;;;;5035364;28;20060;-68
2021/01/23 08:46:01;;;;;;;9.70;3.50;;;;;;;;;;5026396;28;20108;-70
2021/01/23 08:48:27;;;;;;;12.43;3.95;;;;;;;;;;5032397;28;20021;-70
2021/01/23 08:50:52;;;;;;;12.75;3.67;;;;;;;;;;5032864;28;20041;-70
2021/01/23 08:53:17;;;;;;;10.65;3.55;;;;;;;;;;5032501;28;20033;-70
2021/01/23 08:55:42;;;;;;;13.57;4.15;;;;;;;;;;5032403;28;20018;-70
2021/01/23 08:58:08;;;;;;;12.15;3.95;;;;;;;;;;5032388;28;20077;-70
2021/01/23 09:00:33;;;;;;;14.50;3.50;;;;;;;;;;5032868;28;20049;-70
2021/01/23 09:03:00;;;;;;;11.88;4.03;;;;;;;;;;5032743;28;20021;-70
2021/01/23 09:05:25;;;;;;;9.05;3.35;;;;;;;;;;5032322;28;20433;-70
2021/01/23 09:07:51;;;;;;;10.20;4.03;;;;;;;;;;5039245;28;20035;-70
2021/01/23 09:10:16;;;;;;;12.77;4.63;;;;;;;;;;5042980;28;20081;-70
2021/01/23 09:12:41;;;;;;;18.73;3.58;;;;;;;;;;5044797;28;20053;-70
2021/01/23 09:15:08;;;;;;;14.50;4.90;;;;;;;;;;5035812;28;20117;-70
2021/01/23 09:17:33;;;;;;;15.50;6.05;;;;;;;;;;5033583;28;20017;-70
2021/01/23 09:19:59;;;;;;;17.85;6.70;;;;;;;;;;5045425;28;20515;-70
2021/01/23 09:22:24;;;;;;;20.83;6.13;;;;;;;;;;5042506;28;20036;-70
2021/01/23 09:24:49;;;;;;;11.73;4.15;;;;;;;;;;5038289;28;20045;-70
2021/01/23 09:27:15;;;;;;;13.75;4.65;;;;;;;;;;5048291;28;20082;-70
2021/01/23 09:29:40;;;;;;;11.23;3.88;;;;;;;;;;5035643;28;20122;-70
2021/01/23 09:32:06;;;;;;;16.77;4.35;;;;;;;;;;5044661;28;20057;-70
2021/01/23 09:34:32;;;;;;;17.33;4.35;;;;;;;;;;5042118;28;20033;-70
2021/01/23 09:36:57;;;;;;;11.73;4.32;;;;;;;;;;5035276;28;20413;-70
2021/01/23 09:39:22;;;;;;;18.45;4.85;;;;;;;;;;5049550;28;20021;-70
2021/01/23 09:41:48;;;;;;;12.45;4.45;;;;;;;;;;5032662;28;20033;-70
2021/01/23 09:44:13;;;;;;;13.50;4.80;;;;;;;;;;5034203;28;20496;-70
2021/01/23 09:46:38;;;;;;;17.10;4.55;;;;;;;;;;5034110;28;20021;-70
2021/01/23 09:49:04;;;;;;;11.13;5.10;;;;;;;;;;5033605;28;20517;-70
2021/01/23 09:51:29;;;;;;;9.48;4.47;;;;;;;;;;5034212;28;20052;-71
2021/01/23 09:53:54;;;;;;;10.88;4.50;;;;;;;;;;5032433;28;20060;-68
2021/01/23 09:56:21;;;;;;;14.00;4.82;;;;;;;;;;5033913;28;20451;-68
2021/01/23 09:58:47;;;;;;;14.20;5.13;;;;;;;;;;5031155;28;20386;-68
2021/01/23 10:01:12;;;;;;;12.38;4.15;;;;;;;;;;5033722;28;20017;-68
2021/01/23 10:03:37;;;;;;;12.32;5.00;;;;;;;;;;5033212;28;20037;-68
2021/01/23 10:06:02;;;;;;;13.25;4.45;;;;;;;;;;5032971;28;20044;-68
2021/01/23 10:08:28;;;;;;;11.52;4.07;;;;;;;;;;5033110;28;20096;-68
2021/01/23 10:10:53;;;;;;;13.60;5.53;;;;;;;;;;5032760;28;20508;-68
2021/01/23 10:13:18;;;;;;;10.60;5.30;;;;;;;;;;5033578;28;20034;-68
2021/01/23 10:15:44;;;;;;;16.98;4.93;;;;;;;;;;5032776;28;20030;-68
2021/01/23 10:18:09;;;;;;;15.93;6.13;;;;;;;;;;5033186;28;20032;-68
2021/01/23 10:20:36;;;;;;;12.93;4.97;;;;;;;;;;5033462;28;20041;-68
2021/01/23 10:23:02;;;;;;;23.30;5.97;;;;;;;;;;5033358;28;20029;-68
2021/01/23 10:25:27;;;;;;;22.40;5.35;;;;;;;;;;5033378;28;20079;-68
2021/01/23 10:27:52;;;;;;;8.32;3.97;;;;;;;;;;5033281;28;20137;-68
2021/01/23 10:30:18;;;;;;;13.85;5.07;;;;;;;;;;5033239;28;20025;-67
2021/01/23 10:32:43;;;;;;;13.63;4.40;;;;;;;;;;5033186;28;20033;-68
2021/01/23 10:35:09;;;;;;;11.00;5.18;;;;;;;;;;5032928;28;20064;-68
2021/01/23 10:37:34;;;;;;;15.57;5.10;;;;;;;;;;5033224;28;20028;-68
2021/01/23 10:40:00;;;;;;;15.05;5.40;;;;;;;;;;5032154;28;20478;-68
2021/01/23 10:42:26;;;;;;;12.38;5.47;;;;;;;;;;5032522;28;20033;-68
2021/01/23 10:44:51;;;;;;;19.08;5.18;;;;;;;;;;5032860;28;20370;-68
2021/01/23 10:47:16;;;;;;;14.55;5.53;;;;;;;;;;5032547;28;20033;-68
2021/01/23 10:49:42;;;;;;;24.63;6.35;;;;;;;;;;5032552;28;20115;-67
2021/01/23 10:52:07;;;;;;;17.38;5.50;;;;;;;;;;5031797;28;20041;-68
2021/01/23 10:54:33;;;;;;;14.77;6.53;;;;;;;;;;5032820;28;20040;-68
2021/01/23 10:56:58;;;;;;;14.20;6.45;;;;;;;;;;5032863;28;20061;-68
2021/01/23 10:59:23;;;;;;;16.58;6.55;;;;;;;;;;5032824;28;20022;-68
2021/01/23 11:01:49;;;;;;;18.38;6.97;;;;;;;;;;5032551;28;20033;-68
2021/01/23 11:04:14;;;;;;;18.90;6.57;;;;;;;;;;5032504;28;20084;-68
2021/01/23 11:06:40;;;;;;;18.13;8.45;;;;;;;;;;5032778;28;20025;-68
2021/01/23 11:09:05;;;;;;;26.08;8.88;;;;;;;;;;5032477;28;20060;-68
2021/01/23 11:11:31;;;;;;;24.08;8.18;;;;;;;;;;5032271;28;20099;-68
2021/01/23 11:13:56;;;;;;;18.35;6.18;;;;;;;;;;5031417;28;20377;-68
2021/01/23 11:16:22;;;;;;;24.90;7.15;;;;;;;;;;5032644;28;20033;-68
2021/01/23 11:18:47;;;;;;;17.48;7.38;;;;;;;;;;5032680;28;20037;-68
2021/01/23 11:21:12;;;;;;;15.60;6.85;;;;;;;;;;5032531;28;20079;-68
2021/01/23 11:23:38;;;;;;;15.95;6.22;;;;;;;;;;5032419;28;20380;-68
2021/01/23 11:26:03;;;;;;;14.07;4.93;;;;;;;;;;5032498;28;20037;-68
2021/01/23 11:28:28;;;;;;;15.57;4.32;;;;;;;;;;5032619;28;20021;-68
2021/01/23 11:30:53;;;;;;;14.23;4.22;;;;;;;;;;5032021;28;20132;-68
2021/01/23 11:33:22;;;;;;;8.98;3.88;;;;;;;;;;5032333;28;20037;-68
2021/01/23 11:35:48;;;;;;;16.33;4.13;;;;;;;;;;5032354;28;20056;-68
2021/01/23 11:38:14;;;;;;;14.75;3.45;;;;;;;;;;5032587;28;20116;-68
2021/01/23 11:40:39;;;;;;;10.25;3.80;;;;;;;;;;5032374;28;20136;-68
2021/01/23 11:43:05;;;;;;;15.30;3.55;;;;;;;;;;5032506;28;20489;-68
2021/01/23 11:45:30;;;;;;;14.57;2.58;;;;;;;;;;5032403;28;20033;-68
2021/01/23 11:47:55;;;;;;;17.33;5.13;;;;;;;;;;5032391;28;20481;-67
2021/01/23 11:50:21;;;;;;;14.77;4.50;;;;;;;;;;5032708;28;20017;-70
2021/01/23 11:52:46;;;;;;;11.75;3.47;;;;;;;;;;5032395;28;20052;-70
2021/01/23 11:55:11;;;;;;;14.63;4.20;;;;;;;;;;5032655;28;20033;-70
2021/01/23 11:57:36;;;;;;;14.13;3.38;;;;;;;;;;5032477;28;20025;-70
2021/01/23 12:00:03;;;;;;;13.38;4.35;;;;;;;;;;5032248;28;20033;-70
2021/01/23 12:02:29;;;;;;;20.08;4.38;;;;;;;;;;5032408;28;20355;-67
2021/01/23 12:04:54;;;;;;;9.35;3.38;;;;;;;;;;5032191;28;20075;-67
2021/01/23 12:07:20;;;;;;;15.35;3.55;;;;;;;;;;5032418;28;20036;-67
2021/01/23 12:09:46;;;;;;;20.52;4.05;;;;;;;;;;5032109;28;20026;-67
2021/01/23 12:12:11;;;;;;;14.85;3.42;;;;;;;;;;5032163;28;20026;-67
2021/01/23 12:14:36;;;;;;;10.48;2.97;;;;;;;;;;5032195;28;20112;-67
2021/01/23 12:17:02;;;;;;;46.30;5.00;;;;;;;;;;5034134;28;20395;-67
2021/01/23 12:19:27;;;;;;;14.60;3.30;;;;;;;;;;5035768;28;20108;-67
2021/01/23 12:21:53;;;;;;;11.52;3.72;;;;;;;;;;5035823;28;20091;-67
2021/01/23 12:24:18;;;;;;;14.88;3.30;;;;;;;;;;5035833;28;20512;-67
2021/01/23 12:26:44;;;;;;;10.88;2.60;;;;;;;;;;5035680;28;20021;-67
2021/01/23 12:29:09;;;;;;;14.80;2.42;;;;;;;;;;5035704;28;20026;-67
2021/01/23 12:31:34;;;;;;;9.80;2.40;;;;;;;;;;5035404;28;20045;-67
2021/01/23 12:34:00;;;;;;;20.48;2.38;;;;;;;;;;5035491;28;20017;-67
2021/01/23 12:36:25;;;;;;;8.13;2.08;;;;;;;;;;5035810;28;20375;-67
2021/01/23 12:38:50;;;;;;;6.93;2.00;;;;;;;;;;5027816;28;20043;-70
2021/01/23 12:41:16;;;;;;;17.45;2.20;;;;;;;;;;5034857;28;20097;-70
2021/01/23 12:43:41;;;;;;;13.43;1.92;;;;;;;;;;5034951;28;20386;-70
2021/01/23 12:46:06;;;;;;;11.45;2.42;;;;;;;;;;5034107;28;20094;-70
2021/01/23 12:48:31;;;;;;;3.65;1.80;;;;;;;;;;5035334;28;20463;-70
2021/01/23 12:50:57;;;;;;;7.25;2.15;;;;;;;;;;5035046;28;20036;-70
2021/01/23 12:53:22;;;;;;;9.00;1.70;;;;;;;;;;5035059;28;20037;-67
2021/01/23 12:55:47;;;;;;;9.32;2.30;;;;;;;;;;5035239;28;20108;-68
2021/01/23 12:58:13;;;;;;;7.78;1.70;;;;;;;;;;5035112;28;20033;-67
2021/01/23 13:00:38;;;;;;;12.70;1.90;;;;;;;;;;5035133;28;20037;-68
2021/01/23 13:03:04;;;;;;;9.50;2.20;;;;;;;;;;5035109;28;20025;-67
2021/01/23 13:05:29;;;;;;;11.23;2.97;;;;;;;;;;5035277;28;20061;-67
2021/01/23 13:07:55;;;;;;;8.35;1.83;;;;;;;;;;5034955;28;20140;-67
2021/01/23 13:10:20;;;;;;;12.15;1.58;;;;;;;;;;5034616;28;20041;-68
2021/01/23 13:12:47;;;;;;;7.30;1.77;;;;;;;;;;5034893;28;20537;-68
2021/01/23 13:15:13;;;;;;;15.27;1.88;;;;;;;;;;5034678;28;20359;-67
2021/01/23 13:17:38;;;;;;;10.65;2.22;;;;;;;;;;5034752;28;20028;-67
2021/01/23 13:20:05;;;;;;;8.10;2.00;;;;;;;;;;5034908;28;20084;-67
2021/01/23 13:22:30;;;;;;;8.77;1.90;;;;;;;;;;5034771;28;20034;-68
2021/01/23 13:24:55;;;;;;;15.63;4.93;;;;;;;;;;5034644;28;20021;-68
2021/01/23 13:27:22;;;;;;;8.23;2.17;;;;;;;;;;5034241;28;20102;-67
2021/01/23 13:29:47;;;;;;;9.40;1.27;;;;;;;;;;5033174;28;20037;-67
2021/01/23 13:32:13;;;;;;;7.15;1.50;;;;;;;;;;5034499;28;20462;-68
2021/01/23 13:34:38;;;;;;;10.80;2.30;;;;;;;;;;5034552;28;20029;-67
2021/01/23 13:37:03;;;;;;;6.30;1.30;;;;;;;;;;5034033;28;20087;-68
2021/01/23 13:39:28;;;;;;;12.75;1.83;;;;;;;;;;5034445;28;20060;-68
2021/01/23 13:41:54;;;;;;;6.43;1.45;;;;;;;;;;5034203;28;20033;-68
2021/01/23 13:44:19;;;;;;;9.27;1.42;;;;;;;;;;5034171;28;20474;-68
2021/01/23 13:46:45;;;;;;;3.55;1.23;;;;;;;;;;5034213;28;20041;-68
2021/01/23 13:49:10;;;;;;;4.47;1.30;;;;;;;;;;5034032;28;20069;-68
2021/01/23 13:51:36;;;;;;;5.82;1.20;;;;;;;;;;5033756;28;20037;-68
2021/01/23 13:54:01;;;;;;;8.63;1.67;;;;;;;;;;5034295;28;20024;-68
2021/01/23 13:56:26;;;;;;;9.07;1.35;;;;;;;;;;5033760;28;20456;-68
2021/01/23 13:58:52;;;;;;;7.88;1.23;;;;;;;;;;5034124;28;20037;-68
2021/01/23 14:01:17;;;;;;;8.23;0.88;;;;;;;;;;5033881;28;20068;-68
2021/01/23 14:03:42;;;;;;;12.70;1.55;;;;;;;;;;5033649;28;20112;-67
2021/01/23 14:06:07;;;;;;;2.63;1.00;;;;;;;;;;5033677;28;20066;-68
2021/01/23 14:08:33;;;;;;;4.72;1.20;;;;;;;;;;5034022;28;20021;-68
2021/01/23 14:10:58;;;;;;;5.15;2.10;;;;;;;;;;5033388;28;20106;-67
2021/01/23 14:13:23;;;;;;;9.45;1.60;;;;;;;;;;5034075;28;20098;-68
2021/01/23 14:15:48;;;;;;;5.53;1.45;;;;;;;;;;5033637;28;20454;-68
2021/01/23 14:18:14;;;;;;;17.70;3.45;;;;;;;;;;5033684;28;20041;-68
2021/01/23 14:20:39;;;;;;;5.28;1.38;;;;;;;;;;5033473;28;20047;-68